Time;durP1;ratioP1;P1;durP2;ratioP2;P2;SDS_P1;SDS_P2;PMS_P1;PMS_P2;Temp;Humidity;BMP_temperature;BMP_pressure;BME280_temperature;BME280_humidity;BME280_pressure;Samples;Min_cycle;Max_cycle;Signal;HPM_P1;HPM_P2
2024/04/05 00:01:30;;;;;;;3.10;1.33;;;11.40;99.90;;;;;;5010552;28;20045;-75
2024/04/05 00:03:56;;;;;;;10.90;1.85;;;11.40;99.90;;;;;;4996058;28;20026;-74
2024/04/05 00:06:22;;;;;;;1.70;1.05;;;11.50;99.90;;;;;;5020790;28;20541;-74
2024/04/05 00:08:48;;;;;;;3.53;1.33;;;11.50;99.90;;;;;;5016907;28;20115;-75
2024/04/05 00:11:14;;;;;;;4.50;1.05;;;11.50;99.90;;;;;;5016628;28;20109;-74
2024/04/05 00:13:40;;;;;;;11.65;1.67;;;11.60;99.90;;;;;;5017140;28;20053;-74
2024/04/05 00:16:07;;;;;;;3.58;0.77;;;11.60;99.90;;;;;;5026738;28;20551;-74
2024/04/05 00:18:36;;;;;;;3.08;1.00;;;11.70;99.90;;;;;;5034638;28;20048;-75
2024/04/05 00:21:05;;;;;;;2.30;2.03;;;11.70;99.90;;;;;;5016925;28;20034;-74
2024/04/05 00:23:34;;;;;;;2.80;1.10;;;11.70;99.90;;;;;;5017037;28;20099;-74
2024/04/05 00:26:05;;;;;;;3.08;1.17;;;11.70;99.90;;;;;;5010552;28;20033;-74
2024/04/05 00:28:34;;;;;;;5.90;1.20;;;11.80;99.90;;;;;;5017109;28;20506;-74
2024/04/05 00:30:59;;;;;;;1.55;0.98;;;11.70;99.90;;;;;;5008326;28;20130;-75
2024/04/05 00:33:25;;;;;;;3.92;0.65;;;11.80;99.90;;;;;;5034345;28;20057;-74
2024/04/05 00:35:52;;;;;;;4.28;1.10;;;11.80;99.90;;;;;;5025427;28;20130;-75
2024/04/05 00:38:19;;;;;;;1.15;0.60;;;11.80;99.90;;;;;;5000695;28;20104;-74
2024/04/05 00:40:45;;;;;;;4.45;0.90;;;11.80;99.90;;;;;;5012718;28;20521;-74
2024/04/05 00:43:12;;;;;;;2.78;1.30;;;11.80;99.90;;;;;;5016650;28;20029;-74
2024/04/05 00:45:40;;;;;;;3.47;0.93;;;11.80;99.90;;;;;;5006569;28;20049;-74
2024/04/05 00:48:06;;;;;;;2.45;1.33;;;11.90;99.90;;;;;;5012911;28;20025;-74
2024/04/05 00:50:34;;;;;;;1.63;0.80;;;11.90;99.90;;;;;;4988061;28;20080;-74
2024/04/05 00:53:01;;;;;;;2.38;1.42;;;11.90;99.90;;;;;;5000442;28;20446;-74
2024/04/05 00:55:29;;;;;;;1.90;0.98;;;11.90;99.90;;;;;;5012321;28;20080;-74
2024/04/05 00:58:00;;;;;;;3.05;1.25;;;11.90;99.90;;;;;;5016216;28;20033;-74
2024/04/05 01:00:29;;;;;;;7.13;1.52;;;11.90;99.90;;;;;;5014314;28;20143;-74
2024/04/05 01:02:55;;;;;;;5.88;1.40;;;11.90;99.90;;;;;;5016212;28;20532;-74
2024/04/05 01:05:21;;;;;;;4.63;1.10;;;11.90;99.90;;;;;;5005168;28;20112;-74
2024/04/05 01:07:52;;;;;;;2.20;1.02;;;11.90;99.90;;;;;;5029423;28;20034;-74
2024/04/05 01:10:21;;;;;;;2.42;1.30;;;11.90;99.90;;;;;;5022556;28;20030;-74
2024/04/05 01:13:02;;;;;;;5.45;1.27;;;11.90;99.90;;;;;;5009218;28;20040;-74
2024/04/05 01:15:28;;;;;;;3.63;1.10;;;11.90;99.90;;;;;;5009569;28;20068;-74
2024/04/05 01:17:54;;;;;;;8.10;1.85;;;11.90;99.90;;;;;;5015648;28;20425;-74
2024/04/05 01:20:23;;;;;;;3.47;0.90;;;11.90;99.90;;;;;;5013880;28;20640;-74
2024/04/05 01:22:53;;;;;;;1.48;1.25;;;12.00;99.90;;;;;;5024695;28;20040;-74
2024/04/05 01:25:20;;;;;;;5.40;1.10;;;12.00;99.90;;;;;;5025366;28;20084;-74
2024/04/05 01:27:46;;;;;;;2.70;1.08;;;12.00;99.90;;;;;;4998865;28;20021;-74
2024/04/05 01:30:12;;;;;;;2.15;1.00;;;12.10;99.90;;;;;;5012986;28;20108;-75
2024/04/05 01:32:38;;;;;;;1.63;0.82;;;12.10;99.90;;;;;;5028534;28;20022;-74
2024/04/05 01:35:04;;;;;;;1.38;0.93;;;12.10;99.90;;;;;;5022302;28;20046;-74
2024/04/05 01:37:30;;;;;;;6.75;1.23;;;12.10;99.90;;;;;;5030635;28;20506;-74
2024/04/05 01:39:56;;;;;;;3.75;1.15;;;12.20;99.90;;;;;;5012119;28;20080;-74
2024/04/05 01:42:22;;;;;;;3.92;1.30;;;12.20;99.90;;;;;;5015062;28;20069;-74
2024/04/05 01:44:47;;;;;;;2.90;1.02;;;12.20;99.90;;;;;;5010391;28;20044;-73
2024/04/05 01:47:13;;;;;;;7.13;1.05;;;12.20;99.90;;;;;;4994888;28;20033;-73
2024/04/05 01:49:39;;;;;;;3.75;1.08;;;12.20;99.90;;;;;;5013237;28;20025;-73
2024/04/05 01:52:05;;;;;;;9.32;1.38;;;12.20;99.90;;;;;;5014098;28;20081;-74
2024/04/05 01:54:32;;;;;;;3.15;1.30;;;12.20;99.90;;;;;;5013143;28;20236;-73
2024/04/05 01:56:58;;;;;;;2.28;0.88;;;12.20;99.90;;;;;;4999094;28;20029;-74
2024/04/05 01:59:24;;;;;;;3.53;0.75;;;12.20;99.90;;;;;;5013829;28;20449;-74
2024/04/05 02:01:49;;;;;;;3.95;1.42;;;12.20;99.90;;;;;;4999169;28;20072;-74
2024/04/05 02:04:15;;;;;;;2.90;1.33;;;12.30;99.90;;;;;;5014198;28;20120;-73
2024/04/05 02:06:41;;;;;;;8.38;1.45;;;12.20;99.90;;;;;;5011492;28;20037;-74
2024/04/05 02:09:08;;;;;;;3.10;1.10;;;12.20;99.90;;;;;;4998727;28;20044;-73
2024/04/05 02:11:34;;;;;;;5.18;1.95;;;12.20;99.90;;;;;;5024255;28;20029;-73
2024/04/05 02:14:02;;;;;;;4.13;1.30;;;12.20;99.90;;;;;;5014797;28;20044;-73
2024/04/05 02:16:28;;;;;;;2.50;1.15;;;12.20;99.90;;;;;;5013708;28;20044;-73
2024/04/05 02:18:54;;;;;;;4.28;1.45;;;12.20;99.90;;;;;;4998673;28;20033;-74
2024/04/05 02:21:20;;;;;;;8.20;1.55;;;12.20;99.90;;;;;;5014186;28;20044;-73
2024/04/05 02:23:45;;;;;;;8.45;1.17;;;12.20;99.90;;;;;;5032598;28;20394;-74
2024/04/05 02:26:11;;;;;;;2.00;1.30;;;12.10;99.90;;;;;;4997130;28;20490;-73
2024/04/05 02:28:37;;;;;;;2.05;1.00;;;12.20;99.90;;;;;;5032541;28;20083;-73
2024/04/05 02:31:08;;;;;;;7.28;0.98;;;12.20;99.90;;;;;;5029163;28;20396;-73
2024/04/05 02:33:33;;;;;;;;;;;12.20;99.90;;;;;;5014767;28;20652;-73
2024/04/05 02:36:00;;;;;;;1.85;1.10;;;12.20;99.90;;;;;;5013479;28;19940;-73
2024/04/05 02:38:26;;;;;;;7.85;1.42;;;12.20;99.90;;;;;;4997784;28;20053;-74
2024/04/05 02:40:55;;;;;;;1.40;0.85;;;12.20;99.90;;;;;;5008985;28;20030;-74
2024/04/05 02:43:21;;;;;;;3.97;1.30;;;12.20;99.90;;;;;;4995736;28;20084;-73
2024/04/05 02:45:48;;;;;;;2.13;0.85;;;12.20;99.90;;;;;;5023627;28;20120;-73
2024/04/05 02:48:15;;;;;;;2.13;1.23;;;12.30;99.90;;;;;;5011485;28;20033;-73
2024/04/05 02:50:40;;;;;;;2.88;1.13;;;12.30;99.90;;;;;;5013724;28;20104;-74
2024/04/05 02:53:06;;;;;;;4.47;1.13;;;12.30;99.90;;;;;;5013966;28;20116;-74
2024/04/05 02:55:32;;;;;;;1.58;0.93;;;12.30;99.90;;;;;;5008627;28;20034;-73
2024/04/05 02:57:58;;;;;;;7.05;1.20;;;12.30;99.90;;;;;;5032048;28;20026;-74
2024/04/05 03:00:23;;;;;;;3.45;1.27;;;12.30;99.90;;;;;;5011076;28;20033;-74
2024/04/05 03:02:49;;;;;;;7.03;1.00;;;12.30;99.90;;;;;;5031635;28;20083;-74
2024/04/05 03:05:15;;;;;;;1.23;1.10;;;12.30;99.90;;;;;;5028793;28;20030;-74
2024/04/05 03:07:41;;;;;;;5.85;1.15;;;12.30;99.90;;;;;;5029069;28;20098;-74
2024/04/05 03:10:07;;;;;;;4.10;1.27;;;12.30;99.90;;;;;;5013123;28;20030;-73
2024/04/05 03:12:33;;;;;;;6.28;0.90;;;12.30;99.90;;;;;;5028057;28;20029;-73
2024/04/05 03:14:59;;;;;;;2.78;0.93;;;12.30;99.90;;;;;;5004637;28;20044;-73
2024/04/05 03:17:25;;;;;;;1.42;0.80;;;12.30;99.90;;;;;;5029213;28;20029;-74
2024/04/05 03:19:50;;;;;;;2.53;1.30;;;12.30;99.90;;;;;;5029749;28;20508;-74
2024/04/05 03:22:16;;;;;;;3.17;0.95;;;12.20;99.90;;;;;;5028066;28;20041;-74
2024/04/05 03:24:42;;;;;;;4.18;1.15;;;12.20;99.90;;;;;;5027266;28;20158;-74
2024/04/05 03:27:08;;;;;;;3.17;1.02;;;12.10;99.90;;;;;;5029168;28;20030;-74
2024/04/05 03:29:33;;;;;;;2.35;0.63;;;12.10;99.90;;;;;;5027846;28;20345;-73
2024/04/05 03:31:59;;;;;;;5.72;1.40;;;12.00;99.90;;;;;;5013255;28;20079;-73
2024/04/05 03:34:25;;;;;;;4.82;1.10;;;12.00;99.90;;;;;;5028654;28;20052;-73
2024/04/05 03:36:51;;;;;;;5.05;1.23;;;12.00;99.90;;;;;;5013170;28;20359;-74
2024/04/05 03:39:17;;;;;;;11.55;1.77;;;12.00;99.90;;;;;;5012517;28;20040;-74
2024/04/05 03:41:42;;;;;;;9.23;1.15;;;12.00;99.90;;;;;;5026608;28;20090;-73
2024/04/05 03:44:08;;;;;;;4.75;0.95;;;12.00;99.90;;;;;;4996556;28;20033;-73
2024/04/05 03:46:37;;;;;;;2.80;1.23;;;12.00;99.90;;;;;;5029502;28;20111;-73
2024/04/05 03:49:06;;;;;;;7.95;2.10;;;12.00;99.90;;;;;;5013572;28;20021;-74
2024/04/05 03:51:31;;;;;;;7.07;1.75;;;12.00;99.90;;;;;;5012875;28;20099;-73
2024/04/05 03:53:58;;;;;;;5.07;1.33;;;12.10;99.90;;;;;;5008337;28;20026;-74
2024/04/05 03:56:23;;;;;;;7.80;1.63;;;12.10;99.90;;;;;;5026299;28;20029;-73
2024/04/05 03:58:51;;;;;;;3.55;1.33;;;12.20;99.90;;;;;;5030927;28;20033;-73
2024/04/05 04:01:17;;;;;;;3.63;1.30;;;12.20;99.90;;;;;;5012774;28;20520;-74
2024/04/05 04:03:44;;;;;;;8.80;1.05;;;12.20;99.90;;;;;;5028521;28;20036;-73
2024/04/05 04:06:10;;;;;;;7.43;1.05;;;12.20;99.90;;;;;;5008173;28;20059;-73
2024/04/05 04:08:36;;;;;;;3.17;1.58;;;12.20;99.90;;;;;;5012289;28;20048;-74
2024/04/05 04:11:03;;;;;;;4.82;1.60;;;12.20;99.90;;;;;;5026530;28;20022;-73
2024/04/05 04:13:29;;;;;;;2.67;1.33;;;12.20;99.90;;;;;;5030726;28;20025;-73
2024/04/05 04:15:55;;;;;;;1.25;0.90;;;12.20;99.90;;;;;;4995012;28;20086;-73
2024/04/05 04:18:21;;;;;;;2.85;0.90;;;12.20;99.90;;;;;;5030627;28;20033;-73
2024/04/05 04:20:49;;;;;;;1.55;0.90;;;12.20;99.90;;;;;;5009013;28;20112;-74
2024/04/05 04:23:14;;;;;;;1.77;0.90;;;12.20;99.90;;;;;;5030640;28;20376;-74
2024/04/05 04:25:40;;;;;;;3.17;1.00;;;12.20;99.90;;;;;;5009857;28;20030;-73
2024/04/05 04:28:09;;;;;;;3.17;0.80;;;12.20;99.90;;;;;;5008335;28;20036;-74
2024/04/05 04:30:35;;;;;;;4.28;0.82;;;12.20;99.90;;;;;;5029045;28;20040;-73
2024/04/05 04:33:01;;;;;;;2.60;1.17;;;12.20;99.90;;;;;;5029401;28;20025;-74
2024/04/05 04:35:27;;;;;;;14.48;1.88;;;12.30;99.90;;;;;;5009559;28;20082;-73
2024/04/05 04:37:53;;;;;;;4.90;1.17;;;12.30;99.90;;;;;;5008732;28;20436;-74
2024/04/05 04:40:19;;;;;;;2.40;1.63;;;12.30;99.90;;;;;;5023497;28;20549;-74
2024/04/05 04:42:45;;;;;;;6.93;1.13;;;12.20;99.90;;;;;;5009341;28;20509;-74
2024/04/05 04:45:11;;;;;;;2.60;1.15;;;12.10;99.90;;;;;;5023537;28;20030;-74
2024/04/05 04:47:38;;;;;;;4.20;1.25;;;12.10;99.90;;;;;;5023019;28;20017;-74
2024/04/05 04:50:05;;;;;;;7.75;1.33;;;12.00;99.90;;;;;;5021706;28;20112;-74
2024/04/05 04:52:31;;;;;;;1.77;0.98;;;12.00;99.90;;;;;;5026079;28;20466;-74
2024/04/05 04:54:57;;;;;;;4.75;1.00;;;12.00;99.90;;;;;;5030441;28;20052;-73
2024/04/05 04:57:23;;;;;;;4.65;1.38;;;12.00;99.90;;;;;;5033258;28;20033;-74
2024/04/05 04:59:51;;;;;;;2.15;1.02;;;12.00;99.90;;;;;;5014627;28;20083;-73
2024/04/05 05:02:17;;;;;;;4.38;1.42;;;12.10;99.90;;;;;;5030834;28;20025;-74
2024/04/05 05:04:43;;;;;;;5.20;1.35;;;12.10;99.90;;;;;;5014511;28;20026;-73
2024/04/05 05:07:09;;;;;;;2.67;1.30;;;12.00;99.90;;;;;;5013470;28;20179;-73
2024/04/05 05:09:35;;;;;;;6.75;1.30;;;12.10;99.90;;;;;;4997797;28;20102;-73
2024/04/05 05:12:01;;;;;;;4.55;1.30;;;12.10;99.90;;;;;;5014058;28;20783;-73
2024/04/05 05:14:27;;;;;;;5.57;2.00;;;12.10;99.90;;;;;;5009305;28;20374;-73
2024/04/05 05:16:53;;;;;;;3.67;1.15;;;12.10;99.90;;;;;;5026591;28;20120;-72
2024/04/05 05:19:20;;;;;;;8.32;1.10;;;12.10;99.90;;;;;;4997167;28;20040;-73
2024/04/05 05:21:46;;;;;;;3.40;1.27;;;12.20;99.90;;;;;;5032158;28;20576;-72
2024/04/05 05:24:12;;;;;;;4.55;1.58;;;12.20;99.90;;;;;;5014357;28;20056;-73
2024/04/05 05:26:38;;;;;;;5.05;1.05;;;12.20;99.90;;;;;;5011890;28;20029;-73
2024/04/05 05:29:03;;;;;;;7.07;1.33;;;12.30;99.90;;;;;;5007864;28;20112;-72
2024/04/05 05:31:29;;;;;;;12.98;1.30;;;12.30;99.90;;;;;;5029440;28;20113;-73
2024/04/05 05:33:55;;;;;;;4.15;1.23;;;12.40;99.90;;;;;;4998677;28;20464;-73
2024/04/05 05:36:21;;;;;;;7.65;1.77;;;12.40;99.90;;;;;;5028031;28;20034;-73
2024/04/05 05:38:46;;;;;;;2.53;1.50;;;12.40;99.90;;;;;;5022912;28;20523;-73
2024/04/05 05:41:12;;;;;;;2.95;1.52;;;12.40;99.90;;;;;;5015345;28;20036;-72
2024/04/05 05:43:38;;;;;;;2.90;1.33;;;12.40;99.90;;;;;;5024851;28;20053;-73
2024/04/05 05:46:05;;;;;;;3.47;1.75;;;12.40;99.90;;;;;;5013968;28;20429;-73
2024/04/05 05:48:31;;;;;;;2.65;1.20;;;12.40;99.90;;;;;;5024483;28;20034;-73
2024/04/05 05:50:57;;;;;;;5.43;1.63;;;12.40;99.90;;;;;;5029545;28;20029;-73
2024/04/05 05:53:23;;;;;;;14.75;1.58;;;12.40;99.90;;;;;;5014952;28;20032;-75
2024/04/05 05:55:52;;;;;;;8.93;1.30;;;12.40;99.90;;;;;;5010924;28;20034;-73
2024/04/05 05:58:18;;;;;;;5.78;1.38;;;12.40;99.90;;;;;;5007675;28;20044;-71
2024/04/05 06:00:44;;;;;;;6.55;1.90;;;12.50;99.90;;;;;;5025521;28;20037;-73
2024/04/05 06:03:11;;;;;;;2.17;1.38;;;12.50;99.90;;;;;;5013652;28;20033;-73
2024/04/05 06:05:37;;;;;;;6.43;1.27;;;12.50;99.90;;;;;;5011318;28;20069;-73
2024/04/05 06:08:03;;;;;;;4.43;1.70;;;12.50;99.90;;;;;;5030840;28;20057;-73
2024/04/05 06:10:29;;;;;;;5.03;1.35;;;12.50;99.90;;;;;;5026673;28;20026;-73
2024/04/05 06:12:55;;;;;;;2.95;1.20;;;12.60;99.90;;;;;;5015003;28;20070;-73
2024/04/05 06:15:21;;;;;;;5.07;0.80;;;12.60;99.90;;;;;;5008793;28;20034;-54
2024/04/05 06:17:47;;;;;;;13.48;4.68;;;12.70;99.90;;;;;;5031139;28;20033;-56
2024/04/05 06:20:15;;;;;;;10.27;2.20;;;12.80;99.90;;;;;;5009632;28;20057;-57
2024/04/05 06:22:41;;;;;;;4.85;1.30;;;12.90;99.90;;;;;;5030752;28;20382;-55
2024/04/05 06:25:08;;;;;;;8.55;1.50;;;13.00;99.90;;;;;;5028420;28;20033;-55
2024/04/05 06:27:35;;;;;;;4.50;1.00;;;13.10;99.90;;;;;;5028095;28;20474;-56
2024/04/05 06:30:02;;;;;;;10.20;2.00;;;13.30;99.90;;;;;;5013126;28;20612;-58
2024/04/05 06:32:31;;;;;;;1.65;1.08;;;13.40;99.90;;;;;;5029891;28;20049;-58
2024/04/05 06:34:56;;;;;;;6.65;1.17;;;13.60;99.90;;;;;;5011363;28;20045;-58
2024/04/05 06:37:22;;;;;;;3.50;1.02;;;13.70;99.90;;;;;;5029256;28;20114;-71
2024/04/05 06:39:53;;;;;;;1.67;1.10;;;13.90;99.90;;;;;;5023851;28;20052;-70
2024/04/05 06:42:20;;;;;;;6.90;1.27;;;14.10;99.90;;;;;;5011713;28;20040;-70
2024/04/05 06:44:50;;;;;;;2.97;0.88;;;14.20;99.90;;;;;;5028394;28;20421;-70
2024/04/05 06:47:16;;;;;;;1.75;1.50;;;14.40;99.90;;;;;;5028263;28;20051;-70
2024/04/05 06:49:42;;;;;;;4.28;1.48;;;14.50;99.90;;;;;;5010242;28;20504;-70
2024/04/05 06:52:08;;;;;;;1.00;0.55;;;14.50;99.90;;;;;;5029649;28;20017;-70
2024/04/05 06:54:42;;;;;;;1.05;0.50;;;14.60;99.90;;;;;;5011835;28;20033;-70
2024/04/05 06:57:09;;;;;;;3.95;1.23;;;14.70;99.90;;;;;;5030052;28;20104;-63
2024/04/05 06:59:35;;;;;;;1.48;0.55;;;14.80;99.90;;;;;;5023230;28;20038;-63
2024/04/05 07:02:01;;;;;;;6.97;0.95;;;14.80;99.90;;;;;;5011528;28;20108;-63
2024/04/05 07:04:27;;;;;;;2.22;0.52;;;14.90;99.90;;;;;;5010342;28;20129;-63
2024/04/05 07:06:53;;;;;;;1.75;0.50;;;15.00;99.90;;;;;;5009383;28;20037;-63
2024/04/05 07:09:20;;;;;;;7.15;1.65;;;15.00;99.90;;;;;;5029537;28;20022;-64
2024/04/05 07:11:46;;;;;;;2.47;0.80;;;15.10;99.90;;;;;;5011188;28;20033;-64
2024/04/05 07:14:16;;;;;;;5.30;1.48;;;15.10;99.90;;;;;;5030073;28;20017;-64
2024/04/05 07:16:43;;;;;;;2.50;0.73;;;15.20;99.90;;;;;;5028798;28;20502;-64
2024/04/05 07:19:09;;;;;;;2.15;0.73;;;15.20;99.90;;;;;;5030768;28;20087;-64
2024/04/05 07:21:35;;;;;;;1.65;0.88;;;15.20;99.90;;;;;;5029175;28;20397;-64
2024/04/05 07:24:02;;;;;;;0.63;0.47;;;15.30;99.90;;;;;;5031024;28;20029;-64
2024/04/05 07:26:28;;;;;;;1.60;0.98;;;15.40;99.90;;;;;;5010240;28;20116;-64
2024/04/05 07:28:53;;;;;;;4.57;0.50;;;15.60;99.90;;;;;;5013271;28;20112;-64
2024/04/05 07:31:20;;;;;;;5.63;0.60;;;15.60;99.90;;;;;;5010570;28;20029;-64
2024/04/05 07:33:46;;;;;;;4.63;0.85;;;15.60;99.90;;;;;;5030921;28;20192;-64
2024/04/05 07:36:12;;;;;;;6.25;1.10;;;15.70;99.90;;;;;;5025355;28;20124;-64
2024/04/05 07:38:38;;;;;;;0.63;0.38;;;15.80;99.90;;;;;;5030941;28;20500;-64
2024/04/05 07:41:06;;;;;;;9.43;0.98;;;15.90;99.90;;;;;;5026526;28;20029;-65
2024/04/05 07:43:32;;;;;;;1.83;0.60;;;15.90;99.90;;;;;;5012848;28;20026;-64
2024/04/05 07:45:58;;;;;;;0.98;0.90;;;16.00;99.90;;;;;;5005934;28;20069;-67
2024/04/05 07:48:25;;;;;;;6.78;0.93;;;16.10;99.90;;;;;;5030843;28;20076;-64
2024/04/05 07:50:51;;;;;;;1.92;0.57;;;16.30;99.90;;;;;;5028504;28;20842;-64
2024/04/05 07:53:17;;;;;;;2.40;0.50;;;16.40;99.90;;;;;;5013056;28;20025;-64
2024/04/05 07:55:43;;;;;;;2.50;0.80;;;16.40;99.90;;;;;;5008427;28;20422;-64
2024/04/05 07:58:09;;;;;;;3.17;0.52;;;16.50;99.90;;;;;;5030315;28;20049;-64
2024/04/05 08:00:36;;;;;;;2.33;0.50;;;16.50;99.90;;;;;;5027516;28;20084;-64
2024/04/05 08:03:03;;;;;;;1.25;0.50;;;16.60;99.90;;;;;;5030476;28;20037;-65
2024/04/05 08:05:29;;;;;;;4.85;0.60;;;16.70;99.90;;;;;;5025530;28;20940;-64
2024/04/05 08:07:56;;;;;;;19.98;2.10;;;16.80;99.90;;;;;;5012872;28;20033;-63
2024/04/05 08:10:22;;;;;;;0.95;0.75;;;17.00;99.90;;;;;;5024055;28;20037;-63
2024/04/05 08:12:50;;;;;;;2.88;0.90;;;17.10;99.90;;;;;;5030455;28;20025;-63
2024/04/05 08:15:16;;;;;;;2.40;0.70;;;17.20;99.90;;;;;;5027695;28;20025;-69
2024/04/05 08:17:42;;;;;;;1.02;0.55;;;17.20;99.90;;;;;;5030312;28;20067;-70
2024/04/05 08:20:08;;;;;;;2.05;0.63;;;17.30;99.90;;;;;;5010598;28;20037;-70
2024/04/05 08:22:34;;;;;;;3.08;1.00;;;17.40;99.90;;;;;;5028173;28;20025;-70
2024/04/05 08:25:00;;;;;;;1.20;0.65;;;17.40;99.90;;;;;;5028165;28;20041;-70
2024/04/05 08:27:31;;;;;;;0.88;0.60;;;17.50;99.90;;;;;;5028334;28;20021;-70
2024/04/05 08:29:58;;;;;;;2.08;1.02;;;17.50;99.90;;;;;;5014064;28;20052;-70
2024/04/05 08:32:24;;;;;;;1.73;0.40;;;17.50;99.90;;;;;;5031626;28;20037;-71
2024/04/05 08:34:50;;;;;;;0.82;0.50;;;17.50;99.90;;;;;;5013680;28;20093;-70
2024/04/05 08:37:15;;;;;;;1.35;0.45;;;17.60;99.90;;;;;;5014035;28;20116;-70
2024/04/05 08:39:42;;;;;;;1.58;0.40;;;17.60;99.90;;;;;;5011274;28;20057;-71
2024/04/05 08:42:17;;;;;;;1.38;0.70;;;17.70;99.90;;;;;;5030879;28;20032;-70
2024/04/05 08:44:46;;;;;;;1.65;0.63;;;17.80;99.90;;;;;;5014266;28;20030;-71
2024/04/05 08:47:13;;;;;;;2.80;0.60;;;17.90;99.90;;;;;;5016154;28;20075;-71
2024/04/05 08:49:39;;;;;;;5.28;0.47;;;17.90;99.90;;;;;;5013790;28;20537;-71
2024/04/05 08:52:06;;;;;;;4.45;0.85;;;17.90;99.90;;;;;;5016254;28;20030;-71
2024/04/05 08:54:32;;;;;;;2.08;0.68;;;18.00;99.90;;;;;;5014445;28;20021;-71
2024/04/05 08:57:01;;;;;;;2.65;0.82;;;18.20;99.90;;;;;;5015033;28;20021;-70
2024/04/05 08:59:28;;;;;;;2.35;0.52;;;18.30;99.90;;;;;;5032680;28;20045;-70
2024/04/05 09:01:58;;;;;;;0.57;0.40;;;18.20;99.90;;;;;;4999377;28;20505;-71
2024/04/05 09:04:25;;;;;;;6.90;1.05;;;18.20;99.90;;;;;;5031684;28;20041;-70
2024/04/05 09:06:53;;;;;;;4.25;0.95;;;18.20;99.90;;;;;;5025168;28;20032;-71
2024/04/05 09:09:31;;;;;;;4.50;0.60;;;18.30;99.90;;;;;;5032810;28;20044;-70
2024/04/05 09:12:10;;;;;;;4.07;0.80;;;18.50;99.90;;;;;;5031282;28;20029;-70
2024/04/05 09:14:37;;;;;;;4.28;1.00;;;18.50;99.90;;;;;;5031012;28;20932;-71
2024/04/05 09:17:13;;;;;;;2.15;0.88;;;18.70;99.90;;;;;;5013168;28;20031;-71
2024/04/05 09:19:39;;;;;;;4.35;0.75;;;18.70;99.90;;;;;;5031501;28;20025;-70
2024/04/05 09:22:05;;;;;;;2.40;0.80;;;18.80;99.90;;;;;;5025881;28;20037;-70
2024/04/05 09:24:31;;;;;;;2.70;0.55;;;18.90;99.90;;;;;;4997770;28;20040;-71
2024/04/05 09:27:06;;;;;;;3.78;0.40;;;19.00;99.90;;;;;;5014693;28;20033;-70
2024/04/05 09:29:32;;;;;;;0.93;0.47;;;19.10;99.90;;;;;;5015367;28;20030;-70
2024/04/05 09:31:58;;;;;;;1.38;0.40;;;19.20;99.90;;;;;;5011343;28;20040;-71
2024/04/05 09:34:29;;;;;;;6.72;0.82;;;19.00;99.90;;;;;;5014283;28;20021;-71
2024/04/05 09:36:58;;;;;;;3.42;0.38;;;19.20;99.90;;;;;;5026302;28;20119;-71
2024/04/05 09:39:25;;;;;;;1.73;0.40;;;19.50;99.90;;;;;;5013457;28;20358;-70
2024/04/05 09:41:55;;;;;;;6.10;0.80;;;19.60;99.90;;;;;;5030847;28;20025;-71
2024/04/05 09:44:21;;;;;;;2.57;0.60;;;19.70;99.90;;;;;;5014098;28;20243;-71
2024/04/05 09:46:48;;;;;;;3.42;0.40;;;19.60;99.90;;;;;;5027214;28;20047;-71
2024/04/05 09:49:15;;;;;;;5.95;0.63;;;20.00;99.90;;;;;;5015188;28;20029;-71
2024/04/05 09:51:46;;;;;;;2.00;0.68;;;20.00;99.90;;;;;;5029900;28;20037;-71
2024/04/05 09:54:17;;;;;;;4.05;0.65;;;20.00;99.90;;;;;;5014665;28;20021;-71
2024/04/05 09:56:45;;;;;;;0.88;0.50;;;20.00;99.90;;;;;;5029142;28;20382;-70
2024/04/05 09:59:21;;;;;;;2.97;0.82;;;19.90;99.90;;;;;;5014930;28;20033;-70
2024/04/05 10:01:49;;;;;;;1.00;0.32;;;20.10;99.90;;;;;;4998661;28;20048;-70
2024/04/05 10:04:15;;;;;;;0.45;0.35;;;20.30;99.90;;;;;;5014537;28;20037;-70
2024/04/05 10:06:42;;;;;;;1.45;0.70;;;20.50;99.90;;;;;;5027813;28;20488;-70
2024/04/05 10:09:26;;;;;;;1.45;0.50;;;20.50;99.90;;;;;;5014916;28;20026;-71
2024/04/05 10:11:52;;;;;;;3.63;0.50;;;20.50;99.90;;;;;;5011995;28;20033;-70
2024/04/05 10:14:27;;;;;;;3.15;0.93;;;20.50;99.90;;;;;;5013500;28;20116;-70
2024/04/05 10:17:11;;;;;;;1.40;0.57;;;20.90;99.90;;;;;;5028952;28;20119;-70
2024/04/05 10:19:39;;;;;;;0.80;0.35;;;21.20;99.90;;;;;;5013215;28;20486;-71
2024/04/05 10:22:10;;;;;;;1.77;0.60;;;21.40;99.90;;;;;;5027211;28;20048;-70
2024/04/05 10:24:37;;;;;;;1.80;0.73;;;21.60;99.90;;;;;;5013218;28;20037;-70
2024/04/05 10:27:11;;;;;;;7.57;0.85;;;21.60;99.90;;;;;;5013763;28;20030;-70
2024/04/05 10:29:37;;;;;;;5.43;0.73;;;21.50;99.90;;;;;;5030514;28;20430;-71
2024/04/05 10:32:09;;;;;;;5.07;0.70;;;22.00;99.90;;;;;;4996007;28;20025;-71
2024/04/05 10:34:38;;;;;;;3.80;0.35;;;22.20;99.00;;;;;;5013486;28;20038;-71
2024/04/05 10:37:13;;;;;;;0.10;0.10;;;22.40;95.40;;;;;;5011761;28;20049;-71
2024/04/05 10:39:40;;;;;;;2.00;0.43;;;22.50;93.20;;;;;;4997429;28;20029;-71
2024/04/05 10:42:06;;;;;;;3.20;0.57;;;22.70;94.80;;;;;;5025428;28;20787;-71
2024/04/05 10:44:33;;;;;;;2.83;0.60;;;22.70;93.80;;;;;;4995696;28;20033;-71
2024/04/05 10:47:00;;;;;;;3.15;1.23;;;22.80;93.10;;;;;;5026611;28;20034;-71
2024/04/05 10:49:26;;;;;;;1.20;0.30;;;22.60;94.10;;;;;;5012887;28;20389;-71
2024/04/05 10:51:58;;;;;;;2.72;0.80;;;22.60;94.00;;;;;;5025083;28;20033;-71
2024/04/05 10:54:24;;;;;;;3.03;1.75;;;22.40;93.40;;;;;;5011585;28;20029;-70
2024/04/05 10:56:50;;;;;;;2.90;0.85;;;22.20;93.80;;;;;;5027461;28;20029;-70
2024/04/05 10:59:19;;;;;;;1.13;0.43;;;22.10;94.40;;;;;;5013391;28;20025;-70
2024/04/05 11:01:47;;;;;;;2.20;0.65;;;21.80;93.60;;;;;;4995281;28;20124;-71
2024/04/05 11:04:13;;;;;;;1.55;0.60;;;21.70;93.30;;;;;;5013633;28;20389;-70
2024/04/05 11:06:41;;;;;;;2.33;0.80;;;21.80;94.00;;;;;;5026419;28;20030;-70
2024/04/05 11:09:14;;;;;;;1.42;0.43;;;21.80;93.20;;;;;;4996768;28;20059;-70
2024/04/05 11:11:41;;;;;;;1.35;0.40;;;21.80;93.30;;;;;;5027589;28;20378;-70
2024/04/05 11:14:09;;;;;;;1.95;0.45;;;21.70;92.00;;;;;;4997349;28;20040;-70
2024/04/05 11:16:37;;;;;;;6.45;0.73;;;21.60;92.20;;;;;;5013795;28;20033;-70
2024/04/05 11:19:04;;;;;;;0.68;0.40;;;21.30;93.20;;;;;;5010799;28;20022;-70
2024/04/05 11:21:31;;;;;;;0.98;0.50;;;21.20;92.90;;;;;;5026243;28;20406;-70
2024/04/05 11:23:57;;;;;;;1.65;0.38;;;21.30;92.40;;;;;;5012503;28;20124;-70
2024/04/05 11:26:30;;;;;;;1.98;1.17;;;21.30;91.90;;;;;;5026448;28;20104;-70
2024/04/05 11:29:05;;;;;;;3.00;0.43;;;21.00;93.10;;;;;;5016855;28;20029;-70
2024/04/05 11:31:32;;;;;;;10.45;1.45;;;21.00;93.10;;;;;;5026942;28;20021;-70
2024/04/05 11:34:01;;;;;;;2.88;0.38;;;21.10;93.60;;;;;;4996286;28;20029;-70
2024/04/05 11:36:26;;;;;;;1.95;0.70;;;21.10;92.50;;;;;;5011676;28;20058;-71
2024/04/05 11:38:53;;;;;;;1.80;0.63;;;20.80;94.10;;;;;;5029922;28;20029;-71
2024/04/05 11:41:19;;;;;;;2.15;0.28;;;20.90;93.70;;;;;;5026779;28;20030;-70
2024/04/05 11:43:45;;;;;;;2.88;0.88;;;20.80;93.60;;;;;;5028545;28;20493;-70
2024/04/05 11:46:11;;;;;;;3.03;0.93;;;20.70;93.50;;;;;;4992144;28;20112;-70
2024/04/05 11:48:37;;;;;;;2.33;0.52;;;20.80;93.70;;;;;;5007664;28;20050;-70
2024/04/05 11:51:05;;;;;;;3.10;0.30;;;20.90;93.80;;;;;;5013065;28;20053;-70
2024/04/05 11:53:31;;;;;;;3.88;0.60;;;20.90;93.30;;;;;;4995398;28;20025;-70
2024/04/05 11:55:58;;;;;;;1.20;0.47;;;20.90;93.30;;;;;;5025090;28;20082;-70
2024/04/05 11:58:24;;;;;;;1.02;0.40;;;21.00;93.60;;;;;;5012468;28;20485;-70
2024/04/05 12:00:51;;;;;;;8.23;0.98;;;21.00;93.90;;;;;;5029075;28;20093;-70
2024/04/05 12:03:20;;;;;;;2.65;0.50;;;21.10;93.50;;;;;;5027907;28;20033;-70
2024/04/05 12:05:46;;;;;;;11.45;1.38;;;21.40;93.30;;;;;;5007899;28;20442;-70
2024/04/05 12:08:12;;;;;;;1.50;0.40;;;21.60;92.70;;;;;;5012265;28;20038;-70
2024/04/05 12:10:39;;;;;;;4.93;0.70;;;21.40;93.50;;;;;;5005931;28;20447;-70
2024/04/05 12:13:05;;;;;;;1.13;0.60;;;21.60;93.50;;;;;;5024274;28;20025;-70
2024/04/05 12:15:34;;;;;;;12.60;0.55;;;21.60;92.90;;;;;;5008394;28;20030;-70
2024/04/05 12:18:00;;;;;;;1.70;0.55;;;21.80;92.50;;;;;;5009172;28;20021;-70
2024/04/05 12:20:26;;;;;;;0.88;0.40;;;21.70;92.50;;;;;;5026035;28;20171;-70
2024/04/05 12:22:52;;;;;;;0.73;0.40;;;21.60;92.60;;;;;;5029033;28;20029;-70
2024/04/05 12:25:22;;;;;;;1.65;0.80;;;21.40;93.50;;;;;;5027565;28;20035;-70
2024/04/05 12:27:48;;;;;;;2.60;0.30;;;21.30;94.10;;;;;;5030258;28;20060;-70
2024/04/05 12:30:15;;;;;;;1.10;0.50;;;21.70;92.60;;;;;;5027344;28;20030;-70
2024/04/05 12:32:41;;;;;;;0.98;0.25;;;22.00;92.40;;;;;;5028707;28;20033;-71
2024/04/05 12:35:07;;;;;;;5.05;0.43;;;22.10;91.50;;;;;;4995974;28;20021;-69
2024/04/05 12:37:39;;;;;;;0.90;0.47;;;22.00;91.50;;;;;;5027523;28;20024;-70
2024/04/05 12:40:17;;;;;;;1.48;0.57;;;21.90;91.50;;;;;;5027075;28;20105;-70
2024/04/05 12:42:43;;;;;;;0.88;0.50;;;22.00;91.70;;;;;;5029574;28;20132;-70
2024/04/05 12:45:09;;;;;;;1.20;0.60;;;22.00;91.40;;;;;;5027241;28;20114;-70